sensor_id;sensor_type;location;lat;lon;timestamp;temperature;humidity
11497;DHT22;5805;51.542;7.230;2022-07-26T00:00:03;23.40;94.30
11497;DHT22;5805;51.542;7.230;2022-07-26T00:02:29;23.30;94.30
11497;DHT22;5805;51.542;7.230;2022-07-26T00:04:55;23.30;94.20
11497;DHT22;5805;51.542;7.230;2022-07-26T00:07:20;23.30;94.40
11497;DHT22;5805;51.542;7.230;2022-07-26T00:09:46;23.30;94.50
11497;DHT22;5805;51.542;7.230;2022-07-26T00:12:11;23.30;94.50
11497;DHT22;5805;51.542;7.230;2022-07-26T00:14:39;23.30;94.60
11497;DHT22;5805;51.542;7.230;2022-07-26T00:17:04;23.30;94.80
11497;DHT22;5805;51.542;7.230;2022-07-26T00:19:30;23.30;94.70
11497;DHT22;5805;51.542;7.230;2022-07-26T00:21:56;23.20;95.00
11497;DHT22;5805;51.542;7.230;2022-07-26T00:24:22;23.20;95.00
11497;DHT22;5805;51.542;7.230;2022-07-26T00:26:47;23.20;94.90
11497;DHT22;5805;51.542;7.230;2022-07-26T00:29:13;23.10;95.10
11497;DHT22;5805;51.542;7.230;2022-07-26T00:31:40;23.00;95.20
11497;DHT22;5805;51.542;7.230;2022-07-26T00:34:06;22.90;95.50
11497;DHT22;5805;51.542;7.230;2022-07-26T00:36:31;22.80;95.80
11497;DHT22;5805;51.542;7.230;2022-07-26T00:38:57;22.80;96.20
11497;DHT22;5805;51.542;7.230;2022-07-26T00:41:23;22.70;96.40
11497;DHT22;5805;51.542;7.230;2022-07-26T00:43:55;22.70;96.70
11497;DHT22;5805;51.542;7.230;2022-07-26T00:46:21;22.70;97.30
11497;DHT22;5805;51.542;7.230;2022-07-26T00:48:48;22.60;97.10
11497;DHT22;5805;51.542;7.230;2022-07-26T00:51:14;22.60;97.30
11497;DHT22;5805;51.542;7.230;2022-07-26T00:53:40;22.50;97.40
11497;DHT22;5805;51.542;7.230;2022-07-26T00:56:05;22.50;98.50
11497;DHT22;5805;51.542;7.230;2022-07-26T00:58:31;22.40;98.50
11497;DHT22;5805;51.542;7.230;2022-07-26T01:00:57;22.40;98.40
11497;DHT22;5805;51.542;7.230;2022-07-26T01:03:22;22.40;98.60
11497;DHT22;5805;51.542;7.230;2022-07-26T01:05:49;22.40;99.00
11497;DHT22;5805;51.542;7.230;2022-07-26T01:08:15;22.40;99.10
11497;DHT22;5805;51.542;7.230;2022-07-26T01:10:41;22.30;99.50
11497;DHT22;5805;51.542;7.230;2022-07-26T01:13:07;22.30;99.50
11497;DHT22;5805;51.542;7.230;2022-07-26T01:15:32;22.40;99.80
11497;DHT22;5805;51.542;7.230;2022-07-26T01:17:58;22.30;99.70
11497;DHT22;5805;51.542;7.230;2022-07-26T01:20:24;22.30;99.80
11497;DHT22;5805;51.542;7.230;2022-07-26T01:22:51;22.20;99.90
11497;DHT22;5805;51.542;7.230;2022-07-26T01:25:27;22.20;99.90
11497;DHT22;5805;51.542;7.230;2022-07-26T01:27:53;22.20;99.90
11497;DHT22;5805;51.542;7.230;2022-07-26T01:30:18;22.20;99.90
11497;DHT22;5805;51.542;7.230;2022-07-26T01:32:44;22.20;99.90
11497;DHT22;5805;51.542;7.230;2022-07-26T01:35:10;22.20;99.90
11497;DHT22;5805;51.542;7.230;2022-07-26T01:37:36;22.10;99.90
11497;DHT22;5805;51.542;7.230;2022-07-26T01:40:03;22.10;99.90
11497;DHT22;5805;51.542;7.230;2022-07-26T01:42:29;22.20;99.90
11497;DHT22;5805;51.542;7.230;2022-07-26T01:44:55;22.20;99.90
11497;DHT22;5805;51.542;7.230;2022-07-26T01:47:21;22.30;99.90
11497;DHT22;5805;51.542;7.230;2022-07-26T01:49:46;22.30;99.90
11497;DHT22;5805;51.542;7.230;2022-07-26T01:52:12;22.30;99.90
11497;DHT22;5805;51.542;7.230;2022-07-26T01:54:38;22.40;99.90
11497;DHT22;5805;51.542;7.230;2022-07-26T01:57:05;22.40;99.90
11497;DHT22;5805;51.542;7.230;2022-07-26T01:59:30;22.50;99.90
11497;DHT22;5805;51.542;7.230;2022-07-26T02:01:56;22.50;99.90
11497;DHT22;5805;51.542;7.230;2022-07-26T02:04:22;22.40;99.90
11497;DHT22;5805;51.542;7.230;2022-07-26T02:06:47;22.50;99.90
11497;DHT22;5805;51.542;7.230;2022-07-26T02:09:13;22.40;99.90
11497;DHT22;5805;51.542;7.230;2022-07-26T02:11:39;22.40;99.90
11497;DHT22;5805;51.542;7.230;2022-07-26T02:14:06;22.40;99.90
11497;DHT22;5805;51.542;7.230;2022-07-26T02:16:31;22.30;99.90
11497;DHT22;5805;51.542;7.230;2022-07-26T02:18:57;22.30;99.90
11497;DHT22;5805;51.542;7.230;2022-07-26T02:21:23;22.30;99.90
11497;DHT22;5805;51.542;7.230;2022-07-26T02:23:48;22.30;99.90
11497;DHT22;5805;51.542;7.230;2022-07-26T02:26:14;22.30;99.90
11497;DHT22;5805;51.542;7.230;2022-07-26T02:28:40;22.30;99.90
11497;DHT22;5805;51.542;7.230;2022-07-26T02:31:07;22.30;99.90
11497;DHT22;5805;51.542;7.230;2022-07-26T02:33:32;22.20;99.90
11497;DHT22;5805;51.542;7.230;2022-07-26T02:35:58;22.20;99.90
11497;DHT22;5805;51.542;7.230;2022-07-26T02:38:24;22.20;99.90
11497;DHT22;5805;51.542;7.230;2022-07-26T02:40:49;22.20;99.90
11497;DHT22;5805;51.542;7.230;2022-07-26T02:43:15;22.20;99.90
11497;DHT22;5805;51.542;7.230;2022-07-26T02:45:40;22.20;99.90
11497;DHT22;5805;51.542;7.230;2022-07-26T02:48:07;22.10;99.90
11497;DHT22;5805;51.542;7.230;2022-07-26T02:50:33;22.10;99.90
11497;DHT22;5805;51.542;7.230;2022-07-26T02:52:59;22.20;99.90
11497;DHT22;5805;51.542;7.230;2022-07-26T02:55:25;22.20;99.90
11497;DHT22;5805;51.542;7.230;2022-07-26T02:57:51;22.20;99.90
11497;DHT22;5805;51.542;7.230;2022-07-26T03:00:19;22.20;99.90
11497;DHT22;5805;51.542;7.230;2022-07-26T03:02:45;22.20;99.90
11497;DHT22;5805;51.542;7.230;2022-07-26T03:05:13;22.20;99.90
11497;DHT22;5805;51.542;7.230;2022-07-26T03:07:38;22.20;99.90
11497;DHT22;5805;51.542;7.230;2022-07-26T03:10:05;22.30;99.90
11497;DHT22;5805;51.542;7.230;2022-07-26T03:12:31;22.20;99.90
11497;DHT22;5805;51.542;7.230;2022-07-26T03:14:56;22.20;99.90
11497;DHT22;5805;51.542;7.230;2022-07-26T03:17:22;22.10;99.90
11497;DHT22;5805;51.542;7.230;2022-07-26T03:19:48;22.10;99.90
11497;DHT22;5805;51.542;7.230;2022-07-26T03:22:15;22.20;99.90
11497;DHT22;5805;51.542;7.230;2022-07-26T03:24:40;22.10;99.90
11497;DHT22;5805;51.542;7.230;2022-07-26T03:27:06;22.10;99.90
11497;DHT22;5805;51.542;7.230;2022-07-26T03:29:32;22.20;99.90
11497;DHT22;5805;51.542;7.230;2022-07-26T03:31:57;22.10;99.90
11497;DHT22;5805;51.542;7.230;2022-07-26T03:34:23;22.20;99.90
11497;DHT22;5805;51.542;7.230;2022-07-26T03:36:49;22.20;99.90
11497;DHT22;5805;51.542;7.230;2022-07-26T03:39:16;22.20;99.90
11497;DHT22;5805;51.542;7.230;2022-07-26T03:41:41;22.20;99.90
11497;DHT22;5805;51.542;7.230;2022-07-26T03:44:07;22.20;99.90
11497;DHT22;5805;51.542;7.230;2022-07-26T03:46:33;22.20;99.90
11497;DHT22;5805;51.542;7.230;2022-07-26T03:48:59;22.20;99.90
11497;DHT22;5805;51.542;7.230;2022-07-26T03:51:24;22.20;99.90
11497;DHT22;5805;51.542;7.230;2022-07-26T03:53:50;22.20;99.90
11497;DHT22;5805;51.542;7.230;2022-07-26T03:56:17;22.20;99.90
11497;DHT22;5805;51.542;7.230;2022-07-26T03:58:43;22.20;99.90
11497;DHT22;5805;51.542;7.230;2022-07-26T04:01:08;22.10;99.90
11497;DHT22;5805;51.542;7.230;2022-07-26T04:03:34;22.20;99.90
11497;DHT22;5805;51.542;7.230;2022-07-26T04:06:00;22.10;99.90
11497;DHT22;5805;51.542;7.230;2022-07-26T04:08:25;22.00;99.90
11497;DHT22;5805;51.542;7.230;2022-07-26T04:10:51;22.00;99.90
11497;DHT22;5805;51.542;7.230;2022-07-26T04:13:18;21.90;99.90
11497;DHT22;5805;51.542;7.230;2022-07-26T04:15:44;21.80;99.90
11497;DHT22;5805;51.542;7.230;2022-07-26T04:18:10;21.80;99.90
11497;DHT22;5805;51.542;7.230;2022-07-26T04:20:36;21.80;99.90
11497;DHT22;5805;51.542;7.230;2022-07-26T04:23:01;21.70;99.90
11497;DHT22;5805;51.542;7.230;2022-07-26T04:25:27;21.70;99.90
11497;DHT22;5805;51.542;7.230;2022-07-26T04:27:53;21.70;99.90
11497;DHT22;5805;51.542;7.230;2022-07-26T04:30:20;21.60;99.90
11497;DHT22;5805;51.542;7.230;2022-07-26T04:32:45;21.60;99.90
11497;DHT22;5805;51.542;7.230;2022-07-26T04:35:11;21.60;99.90
11497;DHT22;5805;51.542;7.230;2022-07-26T04:37:38;21.50;99.90
11497;DHT22;5805;51.542;7.230;2022-07-26T04:40:05;21.50;99.90
11497;DHT22;5805;51.542;7.230;2022-07-26T04:42:31;21.40;99.90
11497;DHT22;5805;51.542;7.230;2022-07-26T04:44:57;21.50;99.90
11497;DHT22;5805;51.542;7.230;2022-07-26T04:47:24;21.40;99.90
11497;DHT22;5805;51.542;7.230;2022-07-26T04:49:50;21.40;99.90
11497;DHT22;5805;51.542;7.230;2022-07-26T04:52:15;21.40;99.90
11497;DHT22;5805;51.542;7.230;2022-07-26T04:54:41;21.40;99.90
11497;DHT22;5805;51.542;7.230;2022-07-26T04:57:07;21.40;99.90
11497;DHT22;5805;51.542;7.230;2022-07-26T04:59:32;21.30;99.90
11497;DHT22;5805;51.542;7.230;2022-07-26T05:01:58;21.40;99.90
11497;DHT22;5805;51.542;7.230;2022-07-26T05:04:25;21.40;99.90
11497;DHT22;5805;51.542;7.230;2022-07-26T05:06:51;21.40;99.90
11497;DHT22;5805;51.542;7.230;2022-07-26T05:09:17;21.50;99.90
11497;DHT22;5805;51.542;7.230;2022-07-26T05:11:42;21.50;99.90
11497;DHT22;5805;51.542;7.230;2022-07-26T05:14:08;21.50;99.90
11497;DHT22;5805;51.542;7.230;2022-07-26T05:16:34;21.50;99.90
11497;DHT22;5805;51.542;7.230;2022-07-26T05:19:00;21.50;99.90
11497;DHT22;5805;51.542;7.230;2022-07-26T05:21:27;21.50;99.90
11497;DHT22;5805;51.542;7.230;2022-07-26T05:23:53;21.60;99.90
11497;DHT22;5805;51.542;7.230;2022-07-26T05:26:19;21.60;99.90
11497;DHT22;5805;51.542;7.230;2022-07-26T05:28:44;21.70;99.90
11497;DHT22;5805;51.542;7.230;2022-07-26T05:31:10;21.70;99.90
11497;DHT22;5805;51.542;7.230;2022-07-26T05:33:36;21.80;99.90
11497;DHT22;5805;51.542;7.230;2022-07-26T05:36:03;21.90;99.90
11497;DHT22;5805;51.542;7.230;2022-07-26T05:38:30;22.00;99.90
11497;DHT22;5805;51.542;7.230;2022-07-26T05:40:55;22.00;99.90
11497;DHT22;5805;51.542;7.230;2022-07-26T05:43:21;22.10;99.90
11497;DHT22;5805;51.542;7.230;2022-07-26T05:45:47;22.10;99.90
11497;DHT22;5805;51.542;7.230;2022-07-26T05:48:12;22.10;99.90
11497;DHT22;5805;51.542;7.230;2022-07-26T05:50:38;22.20;99.90
11497;DHT22;5805;51.542;7.230;2022-07-26T05:53:04;22.20;99.90
11497;DHT22;5805;51.542;7.230;2022-07-26T05:55:31;22.20;99.90
11497;DHT22;5805;51.542;7.230;2022-07-26T05:57:56;22.20;99.90
11497;DHT22;5805;51.542;7.230;2022-07-26T06:00:22;22.20;99.90
11497;DHT22;5805;51.542;7.230;2022-07-26T06:02:48;22.40;99.90
11497;DHT22;5805;51.542;7.230;2022-07-26T06:05:13;22.50;99.90
11497;DHT22;5805;51.542;7.230;2022-07-26T06:07:39;22.50;99.90
11497;DHT22;5805;51.542;7.230;2022-07-26T06:10:05;22.60;99.90
11497;DHT22;5805;51.542;7.230;2022-07-26T06:12:33;22.80;99.90
11497;DHT22;5805;51.542;7.230;2022-07-26T06:14:58;23.10;99.90
11497;DHT22;5805;51.542;7.230;2022-07-26T06:17:24;23.30;99.90
11497;DHT22;5805;51.542;7.230;2022-07-26T06:19:50;23.40;99.90
11497;DHT22;5805;51.542;7.230;2022-07-26T06:22:15;23.60;99.90
11497;DHT22;5805;51.542;7.230;2022-07-26T06:24:41;23.70;99.90
11497;DHT22;5805;51.542;7.230;2022-07-26T06:27:06;24.00;99.90
11497;DHT22;5805;51.542;7.230;2022-07-26T06:29:33;24.20;99.90
11497;DHT22;5805;51.542;7.230;2022-07-26T06:31:59;24.30;99.90
11497;DHT22;5805;51.542;7.230;2022-07-26T06:34:25;24.30;99.90
11497;DHT22;5805;51.542;7.230;2022-07-26T06:36:51;24.40;99.90
11497;DHT22;5805;51.542;7.230;2022-07-26T06:39:16;24.50;99.90
11497;DHT22;5805;51.542;7.230;2022-07-26T06:41:42;24.60;99.90
11497;DHT22;5805;51.542;7.230;2022-07-26T06:44:08;24.60;99.90
11497;DHT22;5805;51.542;7.230;2022-07-26T06:46:35;24.60;99.90
11497;DHT22;5805;51.542;7.230;2022-07-26T06:49:00;24.70;99.90
11497;DHT22;5805;51.542;7.230;2022-07-26T06:51:26;24.70;99.90
11497;DHT22;5805;51.542;7.230;2022-07-26T06:53:52;24.70;99.90
11497;DHT22;5805;51.542;7.230;2022-07-26T06:56:18;24.60;99.90
11497;DHT22;5805;51.542;7.230;2022-07-26T06:58:44;24.60;99.90
11497;DHT22;5805;51.542;7.230;2022-07-26T07:01:10;24.60;99.90
11497;DHT22;5805;51.542;7.230;2022-07-26T07:03:37;24.60;99.90
11497;DHT22;5805;51.542;7.230;2022-07-26T07:06:03;24.60;99.90
11497;DHT22;5805;51.542;7.230;2022-07-26T07:08:29;24.50;99.90
11497;DHT22;5805;51.542;7.230;2022-07-26T07:10:54;24.40;99.90
11497;DHT22;5805;51.542;7.230;2022-07-26T07:13:20;24.50;99.90
11497;DHT22;5805;51.542;7.230;2022-07-26T07:15:46;24.50;99.90
11497;DHT22;5805;51.542;7.230;2022-07-26T07:18:11;24.50;99.90
11497;DHT22;5805;51.542;7.230;2022-07-26T07:20:39;24.50;99.90
11497;DHT22;5805;51.542;7.230;2022-07-26T07:23:05;24.50;99.90
11497;DHT22;5805;51.542;7.230;2022-07-26T07:25:30;24.50;99.90
11497;DHT22;5805;51.542;7.230;2022-07-26T07:27:56;24.70;99.90
11497;DHT22;5805;51.542;7.230;2022-07-26T07:30:22;25.00;99.90
11497;DHT22;5805;51.542;7.230;2022-07-26T07:32:48;25.30;99.90
11497;DHT22;5805;51.542;7.230;2022-07-26T07:35:13;25.60;99.90
11497;DHT22;5805;51.542;7.230;2022-07-26T07:37:40;25.90;99.90
11497;DHT22;5805;51.542;7.230;2022-07-26T07:40:08;26.20;98.30
11497;DHT22;5805;51.542;7.230;2022-07-26T07:42:34;26.20;97.00
11497;DHT22;5805;51.542;7.230;2022-07-26T07:44:59;26.20;97.50
11497;DHT22;5805;51.542;7.230;2022-07-26T07:47:25;26.20;97.70
11497;DHT22;5805;51.542;7.230;2022-07-26T07:49:51;26.10;97.70
11497;DHT22;5805;51.542;7.230;2022-07-26T07:52:17;26.00;98.20
11497;DHT22;5805;51.542;7.230;2022-07-26T07:54:44;26.00;97.70
11497;DHT22;5805;51.542;7.230;2022-07-26T07:57:09;26.10;97.90
11497;DHT22;5805;51.542;7.230;2022-07-26T07:59:35;26.30;97.20
11497;DHT22;5805;51.542;7.230;2022-07-26T08:02:01;26.40;96.40
11497;DHT22;5805;51.542;7.230;2022-07-26T08:04:26;26.60;96.20
11497;DHT22;5805;51.542;7.230;2022-07-26T08:06:52;26.80;95.20
11497;DHT22;5805;51.542;7.230;2022-07-26T08:09:18;26.80;95.40
11497;DHT22;5805;51.542;7.230;2022-07-26T08:11:45;27.50;96.30
11497;DHT22;5805;51.542;7.230;2022-07-26T08:14:11;29.40;93.40
11497;DHT22;5805;51.542;7.230;2022-07-26T08:16:37;31.60;83.30
11497;DHT22;5805;51.542;7.230;2022-07-26T08:19:03;33.70;72.30
11497;DHT22;5805;51.542;7.230;2022-07-26T08:21:29;35.40;64.40
11497;DHT22;5805;51.542;7.230;2022-07-26T08:23:55;35.60;55.70
11497;DHT22;5805;51.542;7.230;2022-07-26T08:26:20;34.40;54.30
11497;DHT22;5805;51.542;7.230;2022-07-26T08:28:47;33.00;55.30
11497;DHT22;5805;51.542;7.230;2022-07-26T08:31:13;31.70;57.30
11497;DHT22;5805;51.542;7.230;2022-07-26T08:33:39;30.80;60.00
11497;DHT22;5805;51.542;7.230;2022-07-26T08:36:05;30.50;63.20
11497;DHT22;5805;51.542;7.230;2022-07-26T08:38:31;30.80;62.60
11497;DHT22;5805;51.542;7.230;2022-07-26T08:40:58;30.80;62.30
11497;DHT22;5805;51.542;7.230;2022-07-26T08:43:24;30.90;62.70
11497;DHT22;5805;51.542;7.230;2022-07-26T08:45:56;30.90;61.60
11497;DHT22;5805;51.542;7.230;2022-07-26T08:48:23;30.40;62.20
11497;DHT22;5805;51.542;7.230;2022-07-26T08:50:50;29.60;62.80
11497;DHT22;5805;51.542;7.230;2022-07-26T08:53:15;28.90;64.50
11497;DHT22;5805;51.542;7.230;2022-07-26T08:55:41;28.30;67.40
11497;DHT22;5805;51.542;7.230;2022-07-26T08:58:07;27.70;69.80
11497;DHT22;5805;51.542;7.230;2022-07-26T09:00:32;27.20;73.40
11497;DHT22;5805;51.542;7.230;2022-07-26T09:03:00;26.80;79.70
11497;DHT22;5805;51.542;7.230;2022-07-26T09:05:28;26.60;83.10
11497;DHT22;5805;51.542;7.230;2022-07-26T09:07:53;26.60;85.40
11497;DHT22;5805;51.542;7.230;2022-07-26T09:10:19;26.60;86.40
11497;DHT22;5805;51.542;7.230;2022-07-26T09:12:45;26.70;88.10
11497;DHT22;5805;51.542;7.230;2022-07-26T09:15:18;26.90;87.80
11497;DHT22;5805;51.542;7.230;2022-07-26T09:17:46;27.20;87.50
11497;DHT22;5805;51.542;7.230;2022-07-26T09:20:16;27.60;87.40
11497;DHT22;5805;51.542;7.230;2022-07-26T09:22:59;28.10;83.00
11497;DHT22;5805;51.542;7.230;2022-07-26T09:25:25;28.30;78.20
11497;DHT22;5805;51.542;7.230;2022-07-26T09:27:51;28.20;75.90
11497;DHT22;5805;51.542;7.230;2022-07-26T09:30:18;27.90;75.50
11497;DHT22;5805;51.542;7.230;2022-07-26T09:32:55;27.80;76.10
11497;DHT22;5805;51.542;7.230;2022-07-26T09:35:22;27.70;76.30
11497;DHT22;5805;51.542;7.230;2022-07-26T09:37:48;27.60;76.40
11497;DHT22;5805;51.542;7.230;2022-07-26T09:40:15;27.60;76.50
11497;DHT22;5805;51.542;7.230;2022-07-26T09:42:55;27.50;76.60
11497;DHT22;5805;51.542;7.230;2022-07-26T09:45:22;27.60;76.00
11497;DHT22;5805;51.542;7.230;2022-07-26T09:47:48;27.70;75.50
11497;DHT22;5805;51.542;7.230;2022-07-26T09:50:15;27.80;74.70
11497;DHT22;5805;51.542;7.230;2022-07-26T09:55:36;28.00;74.30
11497;DHT22;5805;51.542;7.230;2022-07-26T09:58:18;28.20;73.10
11497;DHT22;5805;51.542;7.230;2022-07-26T10:00:43;28.40;73.90
11497;DHT22;5805;51.542;7.230;2022-07-26T10:03:09;28.80;73.00
11497;DHT22;5805;51.542;7.230;2022-07-26T10:05:36;29.00;69.80
11497;DHT22;5805;51.542;7.230;2022-07-26T10:08:02;29.20;68.50
11497;DHT22;5805;51.542;7.230;2022-07-26T10:10:30;29.10;67.50
11497;DHT22;5805;51.542;7.230;2022-07-26T10:12:59;29.00;67.10
11497;DHT22;5805;51.542;7.230;2022-07-26T10:15:36;29.00;66.70
11497;DHT22;5805;51.542;7.230;2022-07-26T10:18:02;28.80;65.10
11497;DHT22;5805;51.542;7.230;2022-07-26T10:20:39;28.70;65.60
11497;DHT22;5805;51.542;7.230;2022-07-26T10:23:39;28.60;65.80
11497;DHT22;5805;51.542;7.230;2022-07-26T10:26:11;28.30;65.40
11497;DHT22;5805;51.542;7.230;2022-07-26T10:28:39;27.70;69.00
11497;DHT22;5805;51.542;7.230;2022-07-26T10:31:28;27.20;72.40
11497;DHT22;5805;51.542;7.230;2022-07-26T10:33:54;26.90;76.00
11497;DHT22;5805;51.542;7.230;2022-07-26T10:36:21;26.80;78.20
11497;DHT22;5805;51.542;7.230;2022-07-26T10:38:57;26.60;79.50
11497;DHT22;5805;51.542;7.230;2022-07-26T10:41:30;26.60;81.70
11497;DHT22;5805;51.542;7.230;2022-07-26T10:44:20;26.40;82.70
11497;DHT22;5805;51.542;7.230;2022-07-26T10:47:09;26.20;85.80
11497;DHT22;5805;51.542;7.230;2022-07-26T10:49:36;26.00;88.50
11497;DHT22;5805;51.542;7.230;2022-07-26T10:52:07;25.90;90.00
11497;DHT22;5805;51.542;7.230;2022-07-26T10:57:39;26.00;91.10
11497;DHT22;5805;51.542;7.230;2022-07-26T11:00:12;26.00;90.60
11497;DHT22;5805;51.542;7.230;2022-07-26T11:02:39;26.00;90.90
11497;DHT22;5805;51.542;7.230;2022-07-26T11:05:07;26.10;91.20
11497;DHT22;5805;51.542;7.230;2022-07-26T11:07:47;26.20;91.20
11497;DHT22;5805;51.542;7.230;2022-07-26T11:10:13;26.30;91.10
11497;DHT22;5805;51.542;7.230;2022-07-26T11:12:39;26.50;91.00
11497;DHT22;5805;51.542;7.230;2022-07-26T11:15:15;26.70;90.40
11497;DHT22;5805;51.542;7.230;2022-07-26T11:17:40;26.70;90.10
11497;DHT22;5805;51.542;7.230;2022-07-26T11:20:07;26.70;90.10
11497;DHT22;5805;51.542;7.230;2022-07-26T11:22:34;26.70;90.50
11497;DHT22;5805;51.542;7.230;2022-07-26T11:25:00;26.90;90.40
11497;DHT22;5805;51.542;7.230;2022-07-26T11:27:26;27.00;90.20
11497;DHT22;5805;51.542;7.230;2022-07-26T11:29:52;27.20;90.00
11497;DHT22;5805;51.542;7.230;2022-07-26T11:32:21;27.20;89.20
11497;DHT22;5805;51.542;7.230;2022-07-26T11:34:56;27.20;89.30
11497;DHT22;5805;51.542;7.230;2022-07-26T11:37:22;27.40;89.40
11497;DHT22;5805;51.542;7.230;2022-07-26T11:39:48;27.40;88.80
11497;DHT22;5805;51.542;7.230;2022-07-26T11:42:13;27.20;89.00
11497;DHT22;5805;51.542;7.230;2022-07-26T11:44:43;27.10;89.50
11497;DHT22;5805;51.542;7.230;2022-07-26T11:47:09;27.20;89.40
11497;DHT22;5805;51.542;7.230;2022-07-26T11:49:36;27.20;88.40
11497;DHT22;5805;51.542;7.230;2022-07-26T11:52:03;27.10;85.80
11497;DHT22;5805;51.542;7.230;2022-07-26T11:54:30;27.00;85.80
11497;DHT22;5805;51.542;7.230;2022-07-26T11:56:57;27.00;85.10
11497;DHT22;5805;51.542;7.230;2022-07-26T11:59:24;27.00;86.00
11497;DHT22;5805;51.542;7.230;2022-07-26T12:01:51;27.00;84.60
11497;DHT22;5805;51.542;7.230;2022-07-26T12:04:20;26.80;85.50
11497;DHT22;5805;51.542;7.230;2022-07-26T12:06:49;26.50;85.20
11497;DHT22;5805;51.542;7.230;2022-07-26T12:09:31;26.10;87.40
11497;DHT22;5805;51.542;7.230;2022-07-26T12:11:57;26.00;89.50
11497;DHT22;5805;51.542;7.230;2022-07-26T12:14:26;25.90;88.40
11497;DHT22;5805;51.542;7.230;2022-07-26T12:16:53;25.70;89.90
11497;DHT22;5805;51.542;7.230;2022-07-26T12:19:26;25.50;91.10
11497;DHT22;5805;51.542;7.230;2022-07-26T12:21:56;25.30;92.20
11497;DHT22;5805;51.542;7.230;2022-07-26T12:24:41;25.40;92.40
11497;DHT22;5805;51.542;7.230;2022-07-26T12:27:08;25.60;92.70
11497;DHT22;5805;51.542;7.230;2022-07-26T12:29:35;25.80;92.00
11497;DHT22;5805;51.542;7.230;2022-07-26T12:32:03;25.80;91.70
11497;DHT22;5805;51.542;7.230;2022-07-26T12:34:29;25.70;91.30
11497;DHT22;5805;51.542;7.230;2022-07-26T12:37:08;25.70;91.40
11497;DHT22;5805;51.542;7.230;2022-07-26T12:39:33;25.80;91.40
11497;DHT22;5805;51.542;7.230;2022-07-26T12:42:00;26.00;90.70
11497;DHT22;5805;51.542;7.230;2022-07-26T12:44:44;26.10;90.00
11497;DHT22;5805;51.542;7.230;2022-07-26T12:47:09;26.20;88.80
11497;DHT22;5805;51.542;7.230;2022-07-26T12:49:35;26.10;88.80
11497;DHT22;5805;51.542;7.230;2022-07-26T12:52:02;26.30;88.50
11497;DHT22;5805;51.542;7.230;2022-07-26T12:54:28;26.40;85.80
11497;DHT22;5805;51.542;7.230;2022-07-26T12:56:54;26.40;86.20
11497;DHT22;5805;51.542;7.230;2022-07-26T12:59:20;26.40;87.00
11497;DHT22;5805;51.542;7.230;2022-07-26T13:01:45;26.40;86.90
11497;DHT22;5805;51.542;7.230;2022-07-26T13:04:11;26.50;86.70
11497;DHT22;5805;51.542;7.230;2022-07-26T13:06:37;26.60;86.20
11497;DHT22;5805;51.542;7.230;2022-07-26T13:09:04;26.50;86.20
11497;DHT22;5805;51.542;7.230;2022-07-26T13:11:29;26.80;86.90
11497;DHT22;5805;51.542;7.230;2022-07-26T13:13:55;27.00;85.20
11497;DHT22;5805;51.542;7.230;2022-07-26T13:16:21;27.00;83.60
11497;DHT22;5805;51.542;7.230;2022-07-26T13:18:46;27.00;82.00
11497;DHT22;5805;51.542;7.230;2022-07-26T13:21:12;26.90;81.60
11497;DHT22;5805;51.542;7.230;2022-07-26T13:23:38;26.80;80.50
11497;DHT22;5805;51.542;7.230;2022-07-26T13:26:05;26.90;80.80
11497;DHT22;5805;51.542;7.230;2022-07-26T13:28:31;26.90;80.60
11497;DHT22;5805;51.542;7.230;2022-07-26T13:30:56;26.90;79.50
11497;DHT22;5805;51.542;7.230;2022-07-26T13:33:22;26.80;79.90
11497;DHT22;5805;51.542;7.230;2022-07-26T13:35:48;26.80;78.90
11497;DHT22;5805;51.542;7.230;2022-07-26T13:38:13;26.90;78.50
11497;DHT22;5805;51.542;7.230;2022-07-26T13:40:39;26.80;79.40
11497;DHT22;5805;51.542;7.230;2022-07-26T13:43:06;26.90;79.60
11497;DHT22;5805;51.542;7.230;2022-07-26T13:45:32;27.00;79.80
11497;DHT22;5805;51.542;7.230;2022-07-26T13:47:57;27.00;77.90
11497;DHT22;5805;51.542;7.230;2022-07-26T13:50:23;27.00;77.70
11497;DHT22;5805;51.542;7.230;2022-07-26T13:52:49;26.90;76.80
11497;DHT22;5805;51.542;7.230;2022-07-26T13:55:14;26.70;78.10
11497;DHT22;5805;51.542;7.230;2022-07-26T13:57:40;26.80;78.60
11497;DHT22;5805;51.542;7.230;2022-07-26T14:00:09;26.60;77.30
11497;DHT22;5805;51.542;7.230;2022-07-26T14:02:35;26.20;77.50
11497;DHT22;5805;51.542;7.230;2022-07-26T14:05:00;26.10;78.10
11497;DHT22;5805;51.542;7.230;2022-07-26T14:07:26;25.90;79.20
11497;DHT22;5805;51.542;7.230;2022-07-26T14:09:52;25.90;80.40
11497;DHT22;5805;51.542;7.230;2022-07-26T14:12:18;25.90;81.10
11497;DHT22;5805;51.542;7.230;2022-07-26T14:14:43;26.00;81.50
11497;DHT22;5805;51.542;7.230;2022-07-26T14:17:10;26.10;81.00
11497;DHT22;5805;51.542;7.230;2022-07-26T14:19:36;26.00;79.90
11497;DHT22;5805;51.542;7.230;2022-07-26T14:22:02;26.00;80.50
11497;DHT22;5805;51.542;7.230;2022-07-26T14:24:28;26.00;81.00
11497;DHT22;5805;51.542;7.230;2022-07-26T14:26:54;25.90;82.50
11497;DHT22;5805;51.542;7.230;2022-07-26T14:29:20;25.90;85.80
11497;DHT22;5805;51.542;7.230;2022-07-26T14:31:46;26.00;86.80
11497;DHT22;5805;51.542;7.230;2022-07-26T14:34:13;26.20;86.20
11497;DHT22;5805;51.542;7.230;2022-07-26T14:36:38;26.30;85.80
11497;DHT22;5805;51.542;7.230;2022-07-26T14:39:04;26.50;84.80
11497;DHT22;5805;51.542;7.230;2022-07-26T14:41:30;26.50;83.40
11497;DHT22;5805;51.542;7.230;2022-07-26T14:43:56;26.50;84.10
11497;DHT22;5805;51.542;7.230;2022-07-26T14:46:21;26.40;84.30
11497;DHT22;5805;51.542;7.230;2022-07-26T14:48:47;26.20;85.00
11497;DHT22;5805;51.542;7.230;2022-07-26T14:51:14;26.10;85.30
11497;DHT22;5805;51.542;7.230;2022-07-26T14:53:40;26.00;85.20
11497;DHT22;5805;51.542;7.230;2022-07-26T14:56:06;25.90;86.60
11497;DHT22;5805;51.542;7.230;2022-07-26T14:58:32;25.80;86.90
11497;DHT22;5805;51.542;7.230;2022-07-26T15:00:57;25.80;85.70
11497;DHT22;5805;51.542;7.230;2022-07-26T15:03:23;25.70;86.10
11497;DHT22;5805;51.542;7.230;2022-07-26T15:05:49;25.70;85.20
11497;DHT22;5805;51.542;7.230;2022-07-26T15:08:16;25.70;86.20
11497;DHT22;5805;51.542;7.230;2022-07-26T15:10:42;25.70;87.40
11497;DHT22;5805;51.542;7.230;2022-07-26T15:13:07;25.70;87.70
11497;DHT22;5805;51.542;7.230;2022-07-26T15:15:33;25.70;89.40
11497;DHT22;5805;51.542;7.230;2022-07-26T15:17:59;25.70;88.20
11497;DHT22;5805;51.542;7.230;2022-07-26T15:20:25;25.80;88.70
11497;DHT22;5805;51.542;7.230;2022-07-26T15:22:51;25.80;89.00
11497;DHT22;5805;51.542;7.230;2022-07-26T15:25:19;25.80;90.00
11497;DHT22;5805;51.542;7.230;2022-07-26T15:27:45;25.80;89.80
11497;DHT22;5805;51.542;7.230;2022-07-26T15:30:11;25.60;89.10
11497;DHT22;5805;51.542;7.230;2022-07-26T15:32:37;25.60;89.10
11497;DHT22;5805;51.542;7.230;2022-07-26T15:35:03;25.50;90.00
11497;DHT22;5805;51.542;7.230;2022-07-26T15:37:29;25.40;90.10
11497;DHT22;5805;51.542;7.230;2022-07-26T15:39:55;25.30;90.40
11497;DHT22;5805;51.542;7.230;2022-07-26T15:42:22;25.30;90.80
11497;DHT22;5805;51.542;7.230;2022-07-26T15:44:48;25.20;91.00
11497;DHT22;5805;51.542;7.230;2022-07-26T15:47:14;25.20;90.40